createdAt,value
2022-09-20T00:01:28.815Z,10.70
2022-09-20T00:03:57.447Z,10.70
2022-09-20T00:06:27.051Z,10.70
2022-09-20T00:08:54.094Z,10.70
2022-09-20T00:11:23.104Z,10.70
2022-09-20T00:13:52.833Z,10.70
2022-09-20T00:16:23.282Z,10.70
2022-09-20T00:18:50.577Z,10.70
2022-09-20T00:21:18.445Z,10.70
2022-09-20T00:23:45.535Z,10.70
2022-09-20T00:26:12.817Z,10.70
2022-09-20T00:28:40.008Z,10.70
2022-09-20T00:31:08.125Z,10.70
2022-09-20T00:33:34.889Z,10.70
2022-09-20T00:36:01.945Z,10.70
2022-09-20T00:38:28.636Z,10.70
2022-09-20T00:40:55.345Z,10.70
2022-09-20T00:43:36.725Z,10.70
2022-09-20T00:46:04.412Z,10.70
2022-09-20T00:48:33.363Z,10.70
2022-09-20T00:51:04.361Z,10.70
2022-09-20T00:53:33.590Z,10.70
2022-09-20T00:56:03.965Z,10.70
2022-09-20T00:58:36.847Z,10.70
2022-09-20T01:01:05.674Z,10.70
2022-09-20T01:03:36.312Z,10.70
2022-09-20T01:06:06.721Z,10.70
2022-09-20T01:08:35.094Z,10.70
2022-09-20T01:11:02.453Z,10.60
2022-09-20T01:13:29.192Z,10.60
2022-09-20T01:15:57.357Z,10.60
2022-09-20T01:18:24.430Z,10.70
2022-09-20T01:20:52.755Z,10.70
2022-09-20T01:23:29.702Z,10.70
2022-09-20T01:26:21.870Z,10.60
2022-09-20T01:29:00.819Z,10.70
2022-09-20T01:31:32.163Z,10.60
2022-09-20T01:34:01.683Z,10.60
2022-09-20T01:36:35.484Z,10.60
2022-09-20T01:39:11.583Z,10.60
2022-09-20T01:41:43.869Z,10.60
2022-09-20T01:44:22.656Z,10.60
2022-09-20T01:46:53.617Z,10.60
2022-09-20T01:49:29.063Z,10.60
2022-09-20T01:52:25.489Z,10.60
2022-09-20T01:55:22.932Z,10.60
2022-09-20T01:58:24.607Z,10.60
2022-09-20T02:01:25.392Z,10.60
2022-09-20T02:04:27.679Z,10.60
2022-09-20T02:07:16.071Z,10.60
2022-09-20T02:10:14.071Z,10.60
2022-09-20T02:12:53.722Z,10.60
2022-09-20T02:16:04.787Z,10.60
2022-09-20T02:18:47.417Z,10.60
2022-09-20T02:21:27.999Z,10.60
2022-09-20T02:24:03.167Z,10.60
2022-09-20T02:26:39.166Z,10.60
2022-09-20T02:29:16.962Z,10.60
2022-09-20T02:32:17.136Z,10.60
2022-09-20T02:35:13.223Z,10.60
2022-09-20T02:37:53.533Z,10.60
2022-09-20T02:40:30.143Z,10.60
2022-09-20T02:43:04.700Z,10.60
2022-09-20T02:45:38.293Z,10.60
2022-09-20T02:48:06.012Z,10.60
2022-09-20T02:50:45.170Z,10.60
2022-09-20T02:53:26.367Z,10.60
2022-09-20T02:56:02.994Z,10.60
2022-09-20T02:58:40.003Z,10.60
2022-09-20T03:01:17.527Z,10.50
2022-09-20T03:03:53.223Z,10.60
2022-09-20T03:06:32.415Z,10.50
2022-09-20T03:09:08.308Z,10.60
2022-09-20T03:11:43.055Z,10.60
2022-09-20T03:14:18.727Z,10.50
2022-09-20T03:16:57.972Z,10.50
2022-09-20T03:19:33.713Z,10.50
2022-09-20T03:22:13.829Z,10.50
2022-09-20T03:24:51.411Z,10.50
2022-09-20T03:27:28.192Z,10.50
2022-09-20T03:30:08.647Z,10.50
2022-09-20T03:32:51.219Z,10.50
2022-09-20T03:35:29.448Z,10.50
2022-09-20T03:38:09.899Z,10.50
2022-09-20T03:40:56.255Z,10.40
2022-09-20T03:43:37.661Z,10.50
2022-09-20T03:46:16.933Z,10.50
2022-09-20T03:49:12.364Z,10.40
2022-09-20T03:51:48.765Z,10.40
2022-09-20T03:54:48.450Z,10.40
2022-09-20T03:57:38.825Z,10.40
2022-09-20T04:00:32.334Z,10.40
2022-09-20T04:03:19.321Z,10.40
2022-09-20T04:06:01.881Z,10.40
2022-09-20T04:08:55.781Z,10.40
2022-09-20T04:11:29.250Z,10.40
2022-09-20T04:14:00.802Z,10.40
2022-09-20T04:16:39.487Z,10.40
2022-09-20T04:19:14.598Z,10.30
2022-09-20T04:21:48.347Z,10.30
2022-09-20T04:24:21.123Z,10.40
2022-09-20T04:26:53.948Z,10.30
2022-09-20T04:29:32.635Z,10.30
2022-09-20T04:32:06.742Z,10.30
2022-09-20T04:34:35.358Z,10.40
2022-09-20T04:37:15.911Z,10.30
2022-09-20T04:39:49.255Z,10.40
2022-09-20T04:42:48.718Z,10.30
2022-09-20T04:45:47.714Z,10.30
2022-09-20T04:49:13.230Z,10.30
2022-09-20T04:52:21.059Z,10.30
2022-09-20T04:55:30.562Z,10.30
2022-09-20T04:58:36.902Z,10.30
2022-09-20T05:01:34.057Z,10.30
2022-09-20T05:04:31.523Z,10.30
2022-09-20T05:07:31.395Z,10.30
2022-09-20T05:10:34.674Z,10.30
2022-09-20T05:13:16.339Z,10.30
2022-09-20T05:15:55.534Z,10.30
2022-09-20T05:18:50.071Z,10.30
2022-09-20T05:21:43.572Z,10.30
2022-09-20T05:24:35.023Z,10.30
2022-09-20T05:27:19.603Z,10.30
2022-09-20T05:29:52.558Z,10.30
2022-09-20T05:32:27.327Z,10.30
2022-09-20T05:35:00.590Z,10.40
2022-09-20T05:37:39.707Z,10.30
2022-09-20T05:40:18.073Z,10.30
2022-09-20T05:42:53.821Z,10.30
2022-09-20T05:45:46.509Z,10.30
2022-09-20T05:48:15.757Z,10.30
2022-09-20T05:50:55.253Z,10.40
2022-09-20T05:54:10.022Z,10.40
2022-09-20T05:56:46.739Z,10.40
2022-09-20T05:59:30.094Z,10.40
2022-09-20T06:02:10.175Z,10.40
2022-09-20T06:04:43.667Z,10.40
2022-09-20T06:07:23.808Z,10.40
2022-09-20T06:10:14.155Z,10.40
2022-09-20T06:12:51.749Z,10.40
2022-09-20T06:15:25.767Z,10.40
2022-09-20T06:18:02.984Z,10.40
2022-09-20T06:20:35.384Z,10.40
2022-09-20T06:23:05.206Z,10.40
2022-09-20T06:25:39.622Z,10.50
2022-09-20T06:28:12.762Z,10.50
2022-09-20T06:30:43.284Z,10.50
2022-09-20T06:33:15.457Z,10.50
2022-09-20T06:35:46.310Z,10.50
2022-09-20T06:38:33.642Z,10.50
2022-09-20T06:41:00.470Z,10.50
2022-09-20T06:43:27.212Z,10.60
2022-09-20T06:45:54.016Z,10.60
2022-09-20T06:48:20.774Z,10.60
2022-09-20T06:50:47.569Z,10.60
2022-09-20T06:53:18.565Z,10.60
2022-09-20T06:55:46.671Z,10.60
2022-09-20T06:58:13.396Z,10.70
2022-09-20T07:00:40.309Z,10.70
2022-09-20T07:03:07.574Z,10.70
2022-09-20T07:05:34.277Z,10.70
2022-09-20T07:08:01.459Z,10.70
2022-09-20T07:10:29.758Z,10.70
2022-09-20T07:12:57.189Z,10.70
2022-09-20T07:15:23.911Z,10.80
2022-09-20T07:17:50.727Z,10.70
2022-09-20T07:20:21.378Z,10.70
2022-09-20T07:22:48.841Z,10.80
2022-09-20T07:25:15.929Z,10.80
2022-09-20T07:27:44.006Z,10.80
2022-09-20T07:30:12.159Z,10.80
2022-09-20T07:32:38.903Z,10.80
2022-09-20T07:35:06.674Z,10.80
2022-09-20T07:37:36.996Z,10.80
2022-09-20T07:40:05.083Z,10.80
2022-09-20T07:42:32.117Z,10.80
2022-09-20T07:45:00.647Z,10.90
2022-09-20T07:47:27.474Z,10.90
2022-09-20T07:49:54.219Z,10.90
2022-09-20T07:52:20.945Z,10.90
2022-09-20T07:54:47.661Z,10.90
2022-09-20T07:57:14.455Z,10.90
2022-09-20T07:59:41.206Z,10.90
2022-09-20T08:02:13.637Z,10.90
2022-09-20T08:04:40.495Z,10.90
2022-09-20T08:07:07.230Z,10.90
2022-09-20T08:09:34.117Z,10.90
2022-09-20T08:14:05.467Z,11.00
2022-09-20T08:14:47.655Z,11.00
2022-09-20T08:17:15.774Z,11.00
2022-09-20T08:19:42.471Z,11.00
2022-09-20T08:22:09.266Z,11.00
2022-09-20T08:24:36.015Z,11.00
2022-09-20T08:27:02.736Z,11.00
2022-09-20T08:29:29.527Z,11.10
2022-09-20T08:31:56.298Z,11.10
2022-09-20T08:34:24.585Z,11.10
2022-09-20T08:36:51.297Z,11.10
2022-09-20T08:42:13.326Z,11.10
2022-09-20T08:44:47.735Z,11.10
2022-09-20T08:47:19.850Z,11.20
2022-09-20T08:49:50.128Z,11.20
2022-09-20T08:52:19.440Z,11.20
2022-09-20T08:54:46.353Z,11.20
2022-09-20T08:57:17.001Z,11.20
2022-09-20T08:59:44.229Z,11.20
2022-09-20T09:02:15.839Z,11.20
2022-09-20T09:04:43.436Z,11.20
2022-09-20T09:07:13.034Z,11.20
2022-09-20T09:09:43.029Z,11.20
2022-09-20T09:12:19.096Z,11.20
2022-09-20T09:14:45.860Z,11.20
2022-09-20T09:17:14.882Z,11.30
2022-09-20T09:19:47.578Z,11.30
2022-09-20T09:22:21.836Z,11.30
2022-09-20T09:25:19.197Z,11.30
2022-09-20T09:27:57.440Z,11.30
2022-09-20T09:30:27.528Z,11.30
2022-09-20T09:33:17.343Z,11.30
2022-09-20T09:35:45.043Z,11.30
2022-09-20T09:38:19.334Z,11.40
2022-09-20T09:40:51.099Z,11.40
2022-09-20T09:43:21.159Z,11.40
2022-09-20T09:45:47.965Z,11.40
2022-09-20T09:48:19.215Z,11.40
2022-09-20T09:50:46.385Z,11.40
2022-09-20T09:53:15.828Z,11.40
2022-09-20T09:56:14.294Z,11.40
2022-09-20T09:58:51.606Z,11.40
2022-09-20T10:01:32.512Z,11.40
2022-09-20T10:04:09.598Z,11.50
2022-09-20T10:06:44.226Z,11.50
2022-09-20T10:09:36.538Z,11.50
2022-09-20T10:12:19.038Z,11.60
2022-09-20T10:14:56.566Z,11.60
2022-09-20T10:17:39.044Z,11.60
2022-09-20T10:20:23.986Z,11.60
2022-09-20T10:23:29.899Z,11.70
2022-09-20T10:25:50.426Z,11.70
2022-09-20T10:28:34.139Z,11.70
2022-09-20T10:31:09.838Z,11.70
2022-09-20T10:33:44.858Z,11.70
2022-09-20T10:36:22.237Z,11.70
2022-09-20T10:38:57.745Z,11.70
2022-09-20T10:41:40.822Z,11.70
2022-09-20T10:44:27.214Z,11.80
2022-09-20T10:47:01.963Z,11.80
2022-09-20T10:49:35.690Z,11.80
2022-09-20T10:52:18.791Z,11.80
2022-09-20T10:55:08.427Z,11.80
2022-09-20T10:57:52.337Z,11.90
2022-09-20T11:00:23.235Z,11.90
2022-09-20T11:03:04.679Z,11.90
2022-09-20T11:05:42.175Z,11.90
2022-09-20T11:08:13.735Z,12.00
2022-09-20T11:10:44.211Z,12.00
2022-09-20T11:13:19.795Z,12.00
2022-09-20T11:15:54.749Z,12.10
2022-09-20T11:18:24.559Z,12.10
2022-09-20T11:20:58.645Z,12.10
2022-09-20T11:23:31.995Z,12.20
2022-09-20T11:26:05.477Z,12.20
2022-09-20T11:28:36.003Z,12.20
2022-09-20T11:31:10.791Z,12.20
2022-09-20T11:33:42.657Z,12.20
2022-09-20T11:36:15.603Z,12.20
2022-09-20T11:38:52.996Z,12.20
2022-09-20T11:41:24.751Z,12.20
2022-09-20T11:43:52.143Z,12.30
2022-09-20T11:46:25.506Z,12.30
2022-09-20T11:48:58.475Z,12.30
2022-09-20T11:52:10.838Z,12.30
2022-09-20T11:55:06.303Z,12.30
2022-09-20T11:57:33.679Z,12.30
2022-09-20T12:00:02.470Z,12.30
2022-09-20T12:02:35.233Z,12.40
2022-09-20T12:05:04.643Z,12.40
2022-09-20T12:07:36.285Z,12.40
2022-09-20T12:10:06.585Z,12.40
2022-09-20T12:12:37.701Z,12.50
2022-09-20T12:15:07.197Z,12.50
2022-09-20T12:18:09.774Z,12.50
2022-09-20T12:21:06.421Z,12.50
2022-09-20T12:24:16.874Z,12.50
2022-09-20T12:26:48.398Z,12.50
2022-09-20T12:29:51.766Z,12.50
2022-09-20T12:32:42.938Z,12.60
2022-09-20T12:35:55.548Z,12.60
2022-09-20T12:38:31.976Z,12.60
2022-09-20T12:41:00.883Z,12.70
2022-09-20T12:43:30.367Z,12.70
2022-09-20T12:46:03.445Z,12.70
2022-09-20T12:48:37.548Z,12.70
2022-09-20T12:51:16.159Z,12.80
2022-09-20T12:54:02.340Z,12.80
2022-09-20T12:56:29.207Z,12.80
2022-09-20T12:58:56.818Z,12.80
2022-09-20T13:01:34.546Z,12.80
2022-09-20T13:04:53.358Z,12.80
2022-09-20T13:07:51.985Z,12.80
2022-09-20T13:10:31.819Z,12.80
2022-09-20T13:13:03.801Z,13.00
2022-09-20T13:15:31.135Z,13.00
2022-09-20T13:18:01.031Z,12.90
2022-09-20T13:20:30.173Z,12.90
2022-09-20T13:23:00.435Z,12.90
2022-09-20T13:25:29.264Z,13.00
2022-09-20T13:28:03.204Z,13.00
2022-09-20T13:30:30.867Z,12.90
2022-09-20T13:32:57.609Z,13.00
2022-09-20T13:35:26.797Z,13.00
2022-09-20T13:37:55.225Z,13.00
2022-09-20T13:40:25.254Z,13.00
2022-09-20T13:43:12.932Z,13.00
2022-09-20T13:45:42.276Z,13.00
2022-09-20T13:48:09.391Z,13.00
2022-09-20T13:50:36.287Z,13.00
2022-09-20T13:53:23.615Z,13.00
2022-09-20T13:56:00.383Z,13.10
2022-09-20T13:58:31.683Z,13.10
2022-09-20T14:00:59.980Z,13.10
2022-09-20T14:03:28.521Z,13.10
2022-09-20T14:05:59.129Z,13.10
2022-09-20T14:08:31.496Z,13.10
2022-09-20T14:11:06.863Z,13.10
2022-09-20T14:13:38.659Z,13.10
2022-09-20T14:16:06.545Z,13.10
2022-09-20T14:18:34.407Z,13.10
2022-09-20T14:21:02.052Z,13.10
2022-09-20T14:23:29.766Z,13.10
2022-09-20T14:26:07.273Z,13.20
2022-09-20T14:28:35.294Z,13.20
2022-09-20T14:31:08.533Z,13.20
2022-09-20T14:33:42.861Z,13.20
2022-09-20T14:36:14.020Z,13.20
2022-09-20T14:38:44.198Z,13.20
2022-09-20T14:41:11.506Z,13.20
2022-09-20T14:43:40.091Z,13.30
2022-09-20T14:46:16.726Z,13.30
2022-09-20T14:48:43.917Z,13.30
2022-09-20T14:51:22.793Z,13.30
2022-09-20T14:53:52.348Z,13.30
2022-09-20T14:56:32.137Z,13.30
2022-09-20T14:59:06.558Z,13.30
2022-09-20T15:01:34.334Z,13.30
2022-09-20T15:04:07.409Z,13.30
2022-09-20T15:06:35.576Z,13.30
2022-09-20T15:09:02.400Z,13.30
2022-09-20T15:11:29.128Z,13.30
2022-09-20T15:13:55.987Z,13.30
2022-09-20T15:16:24.152Z,13.30
2022-09-20T15:18:50.923Z,13.30
2022-09-20T15:21:17.663Z,13.30
2022-09-20T15:23:44.381Z,13.30
2022-09-20T15:26:12.948Z,13.30
2022-09-20T15:28:39.823Z,13.30
2022-09-20T15:31:06.881Z,13.30
2022-09-20T15:33:34.998Z,13.40
2022-09-20T15:36:02.720Z,13.40
2022-09-20T15:38:29.539Z,13.40
2022-09-20T15:40:56.393Z,13.30
2022-09-20T15:43:24.078Z,13.50
2022-09-20T15:45:52.442Z,13.50
2022-09-20T15:48:20.532Z,13.40
2022-09-20T15:51:00.910Z,13.40
2022-09-20T15:53:28.178Z,13.40
2022-09-20T15:55:54.891Z,13.40
2022-09-20T15:58:21.612Z,13.40
2022-09-20T16:00:48.500Z,13.40
2022-09-20T16:03:15.381Z,13.30
2022-09-20T16:05:42.234Z,13.30
2022-09-20T16:08:10.311Z,13.30
2022-09-20T16:10:37.056Z,13.30
2022-09-20T16:13:03.775Z,13.30
2022-09-20T16:15:30.490Z,13.30
2022-09-20T16:17:57.239Z,13.30
2022-09-20T16:20:24.010Z,13.30
2022-09-20T16:22:50.914Z,13.30
2022-09-20T16:25:18.999Z,13.30
2022-09-20T16:27:45.734Z,13.30
2022-09-20T16:30:12.994Z,13.30
2022-09-20T16:32:39.715Z,13.20
2022-09-20T16:35:07.425Z,13.30
2022-09-20T16:37:34.162Z,13.30
2022-09-20T16:40:01.232Z,13.30
2022-09-20T16:42:29.332Z,13.20
2022-09-20T16:44:56.059Z,13.20
2022-09-20T16:47:22.807Z,13.20
2022-09-20T16:49:49.645Z,13.20
2022-09-20T16:52:16.640Z,13.20
2022-09-20T16:54:43.366Z,13.20
2022-09-20T16:57:10.110Z,13.20
2022-09-20T16:59:38.195Z,13.10
2022-09-20T17:02:04.953Z,13.10
2022-09-20T17:04:31.740Z,13.10
2022-09-20T17:06:58.518Z,13.10
2022-09-20T17:09:25.295Z,13.10
2022-09-20T17:11:52.023Z,13.00
2022-09-20T17:14:19.957Z,13.10
2022-09-20T17:16:54.759Z,13.20
2022-09-20T17:19:23.200Z,13.20
2022-09-20T17:21:51.590Z,13.10
2022-09-20T17:24:20.358Z,13.00
2022-09-20T17:26:48.751Z,13.00
2022-09-20T17:29:18.245Z,12.90
2022-09-20T17:31:55.121Z,12.80
2022-09-20T17:34:26.775Z,12.80
2022-09-20T17:36:54.345Z,12.70
2022-09-20T17:39:21.638Z,12.70
2022-09-20T17:41:50.917Z,12.60
2022-09-20T17:44:19.790Z,12.60
2022-09-20T17:46:50.319Z,12.60
2022-09-20T17:49:20.743Z,12.50
2022-09-20T17:51:50.490Z,12.50
2022-09-20T17:54:19.882Z,12.50
2022-09-20T17:56:48.730Z,12.40
2022-09-20T17:59:19.041Z,12.40
2022-09-20T18:01:50.983Z,12.40
2022-09-20T18:04:18.309Z,12.30
2022-09-20T18:06:46.752Z,12.30
2022-09-20T18:09:15.947Z,12.30
2022-09-20T18:11:44.600Z,12.30
2022-09-20T18:14:11.298Z,12.30
2022-09-20T18:16:38.050Z,12.30
2022-09-20T18:19:07.618Z,12.20
2022-09-20T18:21:35.348Z,12.20
2022-09-20T18:24:05.110Z,12.30
2022-09-20T18:26:32.135Z,12.20
2022-09-20T18:29:00.560Z,12.20
2022-09-20T18:31:28.805Z,12.20
2022-09-20T18:33:56.787Z,12.10
2022-09-20T18:36:25.167Z,12.10
2022-09-20T18:38:52.354Z,12.10
2022-09-20T18:41:19.039Z,12.20
2022-09-20T18:43:46.963Z,12.10
2022-09-20T18:46:13.748Z,12.10
2022-09-20T18:48:40.545Z,12.10
2022-09-20T18:51:08.692Z,12.00
2022-09-20T18:53:38.789Z,12.00
2022-09-20T18:56:07.581Z,12.00
2022-09-20T18:58:35.208Z,12.00
2022-09-20T19:01:19.049Z,11.90
2022-09-20T19:03:55.471Z,11.90
2022-09-20T19:06:25.195Z,11.80
2022-09-20T19:09:00.831Z,11.80
2022-09-20T19:11:32.813Z,11.80
2022-09-20T19:14:05.983Z,11.80
2022-09-20T19:16:34.526Z,11.60
2022-09-20T19:19:27.875Z,11.60
2022-09-20T19:21:59.273Z,11.60
2022-09-20T19:24:45.776Z,11.60
2022-09-20T19:27:13.485Z,11.60
2022-09-20T19:29:41.120Z,11.60
2022-09-20T19:32:14.642Z,11.60
2022-09-20T19:34:43.493Z,11.60
2022-09-20T19:37:20.421Z,11.60
2022-09-20T19:40:14.094Z,11.50
2022-09-20T19:42:53.708Z,11.50
2022-09-20T19:45:30.724Z,11.50
2022-09-20T19:48:06.540Z,11.40
2022-09-20T19:50:46.127Z,11.40
2022-09-20T19:53:17.391Z,11.40
2022-09-20T19:55:49.619Z,11.40
2022-09-20T19:58:18.061Z,11.30
2022-09-20T20:00:48.630Z,11.30
2022-09-20T20:03:16.464Z,11.20
2022-09-20T20:05:50.586Z,11.30
2022-09-20T20:08:19.625Z,11.30
2022-09-20T20:10:57.308Z,11.20
2022-09-20T20:13:32.673Z,11.20
2022-09-20T20:16:02.469Z,11.20
2022-09-20T20:18:37.188Z,11.20
2022-09-20T20:21:10.798Z,11.20
2022-09-20T20:24:03.776Z,11.20
2022-09-20T20:26:32.015Z,11.10
2022-09-20T20:28:58.753Z,11.10
2022-09-20T20:31:25.524Z,11.00
2022-09-20T20:33:52.274Z,11.00
2022-09-20T20:36:18.957Z,11.00
2022-09-20T20:38:45.798Z,11.00
2022-09-20T20:41:14.827Z,11.00
2022-09-20T20:43:44.347Z,11.00
2022-09-20T20:46:12.305Z,10.90
2022-09-20T20:48:39.099Z,10.80
2022-09-20T20:51:07.683Z,10.80
2022-09-20T20:53:37.194Z,10.80
2022-09-20T20:56:06.563Z,10.90
2022-09-20T20:58:34.424Z,10.90
2022-09-20T21:01:07.789Z,10.80
2022-09-20T21:03:34.658Z,10.70
2022-09-20T21:06:01.415Z,10.70
2022-09-20T21:08:31.344Z,10.70
2022-09-20T21:11:00.871Z,10.70
2022-09-20T21:13:27.607Z,10.60
2022-09-20T21:15:54.314Z,10.60
2022-09-20T21:18:22.420Z,10.60
2022-09-20T21:20:49.118Z,10.60
2022-09-20T21:23:15.795Z,10.50
2022-09-20T21:25:42.478Z,10.50
2022-09-20T21:28:09.364Z,10.50
2022-09-20T21:30:36.138Z,10.50
2022-09-20T21:33:02.854Z,10.30
2022-09-20T21:35:30.933Z,10.40
2022-09-20T21:37:57.655Z,10.40
2022-09-20T21:40:24.458Z,10.40
2022-09-20T21:42:52.499Z,10.40
2022-09-20T21:45:19.233Z,10.30
2022-09-20T21:47:48.815Z,10.30
2022-09-20T21:50:15.661Z,10.30
2022-09-20T21:52:45.902Z,10.40
2022-09-20T21:55:12.718Z,10.20
2022-09-20T21:57:39.429Z,10.20
2022-09-20T22:00:07.725Z,10.20
2022-09-20T22:02:34.493Z,10.10
2022-09-20T22:05:01.282Z,10.10
2022-09-20T22:07:28.096Z,10.20
2022-09-20T22:09:56.159Z,10.10
2022-09-20T22:12:24.202Z,10.20
2022-09-20T22:14:50.989Z,10.10
2022-09-20T22:17:17.714Z,10.20
2022-09-20T22:19:44.437Z,10.20
2022-09-20T22:22:11.171Z,10.10
2022-09-20T22:24:37.898Z,10.10
2022-09-20T22:27:06.227Z,10.00
2022-09-20T22:29:32.958Z,10.00
2022-09-20T22:31:59.682Z,9.90
2022-09-20T22:34:26.390Z,9.90
2022-09-20T22:36:53.172Z,9.90
2022-09-20T22:39:19.872Z,9.90
2022-09-20T22:41:46.691Z,10.00
2022-09-20T22:44:14.840Z,9.90
2022-09-20T22:46:41.586Z,9.90
2022-09-20T22:49:09.288Z,9.90
2022-09-20T22:51:37.115Z,9.90
2022-09-20T22:54:06.806Z,9.80
2022-09-20T22:56:33.609Z,9.80
2022-09-20T22:59:03.731Z,9.80
2022-09-20T23:01:33.323Z,9.70
2022-09-20T23:04:01.955Z,9.50
2022-09-20T23:06:30.799Z,9.50
2022-09-20T23:08:59.423Z,9.60
2022-09-20T23:11:26.810Z,9.60
2022-09-20T23:13:54.628Z,9.80
2022-09-20T23:16:23.742Z,9.70
2022-09-20T23:18:52.761Z,9.70
2022-09-20T23:21:20.087Z,9.70
2022-09-20T23:23:47.258Z,9.50
2022-09-20T23:26:16.202Z,9.60
2022-09-20T23:28:45.163Z,9.50
2022-09-20T23:31:13.766Z,9.60
2022-09-20T23:33:46.753Z,9.50
2022-09-20T23:36:16.752Z,9.50
2022-09-20T23:38:44.103Z,9.50
2022-09-20T23:41:12.995Z,9.50
2022-09-20T23:43:41.536Z,9.50
2022-09-20T23:46:09.953Z,9.50
2022-09-20T23:48:37.926Z,9.50
2022-09-20T23:51:05.597Z,9.30
2022-09-20T23:53:34.276Z,9.30
2022-09-20T23:56:01.397Z,9.30
2022-09-20T23:58:28.351Z,9.30
